Time;durP1;ratioP1;P1;durP2;ratioP2;P2;SDS_P1;SDS_P2;PMS_P1;PMS_P2;Temp;Humidity;BMP_temperature;BMP_pressure;BME280_temperature;BME280_humidity;BME280_pressure;Samples;Min_cycle;Max_cycle;Signal;HPM_P1;HPM_P2
2022/07/31 00:01:53;;;;;;;8.73;7.93;;;15.60;99.90;;;;;;5068253;28;20024;-78
2022/07/31 00:04:20;;;;;;;8.32;7.53;;;15.60;99.90;;;;;;5061219;28;20024;-78
2022/07/31 00:06:46;;;;;;;7.78;6.97;;;15.50;99.90;;;;;;5074364;28;20016;-77
2022/07/31 00:09:12;;;;;;;10.48;7.60;;;15.50;99.90;;;;;;5073946;28;20012;-77
2022/07/31 00:11:37;;;;;;;9.38;7.13;;;15.50;99.90;;;;;;5063088;28;20090;-78
2022/07/31 00:14:03;;;;;;;10.02;7.03;;;15.40;99.90;;;;;;5047418;28;20029;-78
2022/07/31 00:16:28;;;;;;;9.98;7.65;;;15.40;99.90;;;;;;5074076;28;20021;-77
2022/07/31 00:18:55;;;;;;;7.95;7.15;;;15.40;99.90;;;;;;5074229;28;20472;-78
2022/07/31 00:21:20;;;;;;;9.95;7.50;;;15.40;99.90;;;;;;5059971;28;20029;-78
2022/07/31 00:23:46;;;;;;;10.48;7.10;;;15.30;99.90;;;;;;5074132;28;20012;-78
2022/07/31 00:26:11;;;;;;;9.80;7.20;;;15.30;99.90;;;;;;5073109;28;20103;-78
2022/07/31 00:28:37;;;;;;;7.95;7.15;;;15.30;99.90;;;;;;5059841;28;20024;-77
2022/07/31 00:31:03;;;;;;;8.60;6.85;;;15.20;99.90;;;;;;5065532;28;20083;-77
2022/07/31 00:33:28;;;;;;;9.43;7.88;;;15.20;99.90;;;;;;5067632;28;20481;-77
2022/07/31 00:35:54;;;;;;;9.20;7.18;;;15.20;99.90;;;;;;5064231;28;20067;-78
2022/07/31 00:38:20;;;;;;;8.15;7.35;;;15.20;99.90;;;;;;5070792;28;20012;-77
2022/07/31 00:40:47;;;;;;;9.60;6.90;;;15.20;99.90;;;;;;5056469;28;20032;-78
2022/07/31 00:43:14;;;;;;;8.40;7.20;;;15.10;99.90;;;;;;5068388;28;20021;-77
2022/07/31 00:45:40;;;;;;;10.18;7.68;;;15.10;99.90;;;;;;5073487;28;20101;-78
2022/07/31 00:48:05;;;;;;;8.35;7.55;;;15.10;99.90;;;;;;5059059;28;20545;-78
2022/07/31 00:50:31;;;;;;;7.82;7.10;;;15.10;99.90;;;;;;5066137;28;20112;-78
2022/07/31 00:52:56;;;;;;;12.93;7.68;;;15.00;99.90;;;;;;5064122;28;20032;-78
2022/07/31 00:55:22;;;;;;;8.38;7.50;;;15.00;99.90;;;;;;5070201;28;20043;-78
2022/07/31 00:57:48;;;;;;;10.00;7.32;;;15.00;99.90;;;;;;5062138;28;20104;-78
2022/07/31 01:00:14;;;;;;;10.05;8.25;;;15.00;99.90;;;;;;5070568;28;20025;-77
2022/07/31 01:02:39;;;;;;;8.40;7.22;;;15.00;99.90;;;;;;5041157;28;20031;-78
2022/07/31 01:05:05;;;;;;;8.43;7.63;;;14.90;99.90;;;;;;5064861;28;20028;-78
2022/07/31 01:07:31;;;;;;;8.40;7.57;;;14.90;99.90;;;;;;5073318;28;20028;-78
2022/07/31 01:09:59;;;;;;;9.50;7.68;;;14.90;99.90;;;;;;5069563;28;20500;-78
2022/07/31 01:12:38;;;;;;;8.40;7.47;;;15.00;99.90;;;;;;5063735;28;20036;-77
2022/07/31 01:15:07;;;;;;;10.13;7.60;;;15.00;99.90;;;;;;5053045;28;20166;-78
2022/07/31 01:17:35;;;;;;;8.68;7.88;;;14.90;99.90;;;;;;5070410;28;20048;-78
2022/07/31 01:20:04;;;;;;;8.23;7.43;;;15.00;99.90;;;;;;5055301;28;20029;-78
2022/07/31 01:22:55;;;;;;;8.82;7.97;;;15.00;99.90;;;;;;5065330;28;20488;-78
2022/07/31 01:25:50;;;;;;;10.43;7.63;;;15.00;99.90;;;;;;5048145;28;20060;-78
2022/07/31 01:28:28;;;;;;;10.20;8.23;;;15.00;99.90;;;;;;5071037;28;20099;-77
2022/07/31 01:31:06;;;;;;;9.13;8.23;;;15.00;99.90;;;;;;5064282;28;20421;-78
2022/07/31 01:33:48;;;;;;;8.30;7.50;;;15.00;99.90;;;;;;5072372;28;20012;-78
2022/07/31 01:36:21;;;;;;;7.97;7.28;;;15.00;99.90;;;;;;5072863;28;20055;-78
2022/07/31 01:38:50;;;;;;;11.05;8.23;;;15.00;99.90;;;;;;5071627;28;20013;-77
2022/07/31 01:41:22;;;;;;;11.95;7.93;;;15.00;99.90;;;;;;5066281;28;20028;-78
2022/07/31 01:43:50;;;;;;;9.40;7.40;;;15.00;99.90;;;;;;5072296;28;20032;-77
2022/07/31 01:46:19;;;;;;;11.05;7.70;;;15.10;99.90;;;;;;5072272;28;20033;-77
2022/07/31 01:48:47;;;;;;;7.93;7.22;;;15.00;99.90;;;;;;5068763;28;20016;-77
2022/07/31 01:51:14;;;;;;;7.78;7.05;;;15.10;99.90;;;;;;5061874;28;20029;-77
2022/07/31 01:53:43;;;;;;;10.77;7.13;;;15.10;99.90;;;;;;5067066;28;20037;-78
2022/07/31 01:56:10;;;;;;;10.38;7.65;;;15.10;99.90;;;;;;5061470;28;20456;-78
2022/07/31 01:58:38;;;;;;;8.45;7.53;;;15.10;99.90;;;;;;5070279;28;20055;-78
2022/07/31 02:01:07;;;;;;;11.15;6.57;;;15.10;99.90;;;;;;5072173;28;20082;-77
2022/07/31 02:03:34;;;;;;;8.07;6.40;;;15.10;99.90;;;;;;5071986;28;20098;-78
2022/07/31 02:06:02;;;;;;;8.10;7.30;;;15.10;99.90;;;;;;5051221;28;20044;-78
2022/07/31 02:08:28;;;;;;;8.13;7.32;;;15.10;99.90;;;;;;5051401;28;20024;-78
2022/07/31 02:10:56;;;;;;;8.13;6.85;;;15.10;99.90;;;;;;5051945;28;20079;-78
2022/07/31 02:13:23;;;;;;;10.57;7.07;;;15.00;99.90;;;;;;5044915;28;20031;-77
2022/07/31 02:15:49;;;;;;;9.07;7.22;;;15.00;99.90;;;;;;5051752;28;20045;-78
2022/07/31 02:18:17;;;;;;;8.73;7.70;;;15.00;99.90;;;;;;5051796;28;20040;-78
2022/07/31 02:20:44;;;;;;;8.50;7.40;;;15.00;99.90;;;;;;5052302;28;20060;-77
2022/07/31 02:23:10;;;;;;;8.43;6.72;;;15.00;99.90;;;;;;5051846;28;20339;-78
2022/07/31 02:25:37;;;;;;;9.68;7.18;;;15.00;99.90;;;;;;5051593;28;20032;-78
2022/07/31 02:28:08;;;;;;;7.32;6.63;;;15.00;99.90;;;;;;5051199;28;20041;-77
2022/07/31 02:30:36;;;;;;;9.10;6.90;;;15.00;99.90;;;;;;5051655;28;20036;-78
2022/07/31 02:33:03;;;;;;;7.40;6.68;;;15.10;99.90;;;;;;5051393;28;20078;-78
2022/07/31 02:35:29;;;;;;;7.03;5.72;;;15.00;99.90;;;;;;5051449;28;20021;-78
2022/07/31 02:37:56;;;;;;;6.88;5.70;;;15.00;99.90;;;;;;5050966;28;20033;-78
2022/07/31 02:40:23;;;;;;;6.50;5.50;;;15.00;99.90;;;;;;5051548;28;20589;-77
2022/07/31 02:42:53;;;;;;;7.43;6.63;;;15.00;99.90;;;;;;5051549;28;20378;-77
2022/07/31 02:45:21;;;;;;;9.45;6.25;;;15.00;99.90;;;;;;5051488;28;20106;-77
2022/07/31 02:47:47;;;;;;;10.30;5.95;;;15.00;99.90;;;;;;5050954;28;20059;-78
2022/07/31 02:50:13;;;;;;;9.07;5.80;;;15.00;99.90;;;;;;5050863;28;20553;-78
2022/07/31 02:52:38;;;;;;;9.40;6.32;;;15.00;99.90;;;;;;5051489;28;20036;-78
2022/07/31 02:55:04;;;;;;;10.80;5.78;;;15.00;99.90;;;;;;5050822;28;20530;-78
2022/07/31 02:57:30;;;;;;;9.30;6.10;;;15.00;99.90;;;;;;5051224;28;20023;-78
2022/07/31 02:59:56;;;;;;;9.60;6.63;;;15.00;99.90;;;;;;5050696;28;20120;-78
2022/07/31 03:02:21;;;;;;;7.45;6.30;;;15.00;99.90;;;;;;5050937;28;20079;-78
2022/07/31 03:04:47;;;;;;;10.35;6.20;;;15.10;99.90;;;;;;5051353;28;20032;-78
2022/07/31 03:07:12;;;;;;;7.18;5.75;;;15.00;99.90;;;;;;5051295;28;20052;-78
2022/07/31 03:09:38;;;;;;;7.55;5.90;;;15.00;99.90;;;;;;5051086;28;20025;-78
2022/07/31 03:12:04;;;;;;;6.88;6.20;;;15.00;99.90;;;;;;5049682;28;20084;-78
2022/07/31 03:14:33;;;;;;;10.88;5.72;;;15.10;99.90;;;;;;5050664;28;20025;-78
2022/07/31 03:16:59;;;;;;;6.00;5.45;;;15.10;99.90;;;;;;5051115;28;20028;-78
2022/07/31 03:19:26;;;;;;;8.50;6.20;;;15.10;99.90;;;;;;5050150;28;20029;-78
2022/07/31 03:21:52;;;;;;;6.70;5.75;;;15.10;99.90;;;;;;5051066;28;20021;-78
2022/07/31 03:24:18;;;;;;;7.45;5.75;;;15.10;99.90;;;;;;5050945;28;20028;-78
2022/07/31 03:26:43;;;;;;;8.77;5.75;;;15.10;99.90;;;;;;5050898;28;20013;-77
2022/07/31 03:29:09;;;;;;;8.43;5.70;;;15.10;99.90;;;;;;5050200;28;20022;-78
2022/07/31 03:31:35;;;;;;;9.27;6.35;;;15.10;99.90;;;;;;5050905;28;20462;-78
2022/07/31 03:34:00;;;;;;;6.20;5.55;;;15.20;99.90;;;;;;5050824;28;20044;-78
2022/07/31 03:36:26;;;;;;;8.80;6.00;;;15.20;99.90;;;;;;5050755;28;20029;-78
2022/07/31 03:38:52;;;;;;;11.77;7.30;;;15.10;99.90;;;;;;5050294;28;20021;-78
2022/07/31 03:41:18;;;;;;;7.00;5.63;;;15.10;99.90;;;;;;5051035;28;20029;-78
2022/07/31 03:43:45;;;;;;;9.52;6.07;;;15.20;99.90;;;;;;5051021;28;20025;-78
2022/07/31 03:46:12;;;;;;;8.90;5.47;;;15.10;99.90;;;;;;5050857;28;20164;-78
2022/07/31 03:48:38;;;;;;;6.28;5.50;;;15.20;99.90;;;;;;5050390;28;20033;-78
2022/07/31 03:51:05;;;;;;;10.55;6.00;;;15.20;99.90;;;;;;5050605;28;20025;-78
2022/07/31 03:53:31;;;;;;;6.57;5.55;;;15.20;99.90;;;;;;5050455;28;20162;-77
2022/07/31 03:55:59;;;;;;;9.02;6.22;;;15.20;99.90;;;;;;5050527;28;20438;-78
2022/07/31 03:58:24;;;;;;;6.20;5.60;;;15.20;99.90;;;;;;5050338;28;20036;-78
2022/07/31 04:00:51;;;;;;;6.10;5.50;;;15.20;99.90;;;;;;5050449;28;20029;-77
2022/07/31 04:03:16;;;;;;;8.18;5.25;;;15.20;99.90;;;;;;5054114;28;20029;-77
2022/07/31 04:05:42;;;;;;;8.40;5.53;;;15.20;99.90;;;;;;5054546;28;20027;-78
2022/07/31 04:08:08;;;;;;;6.43;5.50;;;15.20;99.90;;;;;;5054331;28;20021;-78
2022/07/31 04:10:35;;;;;;;8.38;5.28;;;15.20;99.90;;;;;;5053967;28;20024;-77
2022/07/31 04:13:04;;;;;;;6.53;5.93;;;15.30;99.90;;;;;;5046455;28;20039;-78
2022/07/31 04:15:30;;;;;;;8.10;5.63;;;15.20;99.90;;;;;;5053673;28;20417;-78
2022/07/31 04:17:56;;;;;;;11.25;6.25;;;15.30;99.90;;;;;;5053424;28;20802;-78
2022/07/31 04:20:22;;;;;;;7.55;5.82;;;15.20;99.90;;;;;;5062459;28;20029;-78
2022/07/31 04:22:48;;;;;;;7.47;5.80;;;15.20;99.90;;;;;;5059947;28;20020;-77
2022/07/31 04:25:14;;;;;;;8.18;5.32;;;15.30;99.90;;;;;;5066738;28;20416;-77
2022/07/31 04:27:39;;;;;;;8.75;5.63;;;15.20;99.90;;;;;;5066769;28;20107;-74
2022/07/31 04:30:07;;;;;;;6.97;5.30;;;15.20;99.90;;;;;;5056017;28;20032;-74
2022/07/31 04:32:33;;;;;;;7.47;5.05;;;15.20;99.90;;;;;;5054775;28;20060;-75
2022/07/31 04:34:59;;;;;;;8.18;5.88;;;15.20;99.90;;;;;;5062687;28;20032;-75
2022/07/31 04:37:24;;;;;;;5.82;5.07;;;15.20;99.90;;;;;;5052511;28;20579;-76
2022/07/31 04:39:50;;;;;;;6.20;5.20;;;15.20;99.90;;;;;;5051863;28;20041;-76
2022/07/31 04:42:15;;;;;;;6.75;5.82;;;15.20;99.90;;;;;;5051722;28;20385;-76
2022/07/31 04:44:41;;;;;;;6.82;4.80;;;15.20;99.90;;;;;;5052423;28;20414;-76
2022/07/31 04:47:07;;;;;;;5.72;4.95;;;15.30;99.90;;;;;;5052597;28;20029;-75
2022/07/31 04:49:33;;;;;;;8.68;5.35;;;15.30;99.90;;;;;;5052085;28;20021;-76
2022/07/31 04:51:59;;;;;;;5.00;4.50;;;15.40;99.90;;;;;;5052410;28;20106;-76
2022/07/31 04:54:25;;;;;;;7.50;5.13;;;15.50;99.90;;;;;;5051882;28;20087;-76
2022/07/31 04:56:51;;;;;;;7.35;4.95;;;15.60;99.90;;;;;;5052296;28;20485;-76
2022/07/31 04:59:19;;;;;;;5.90;4.40;;;15.60;99.90;;;;;;5051982;28;20019;-76
2022/07/31 05:01:45;;;;;;;7.43;4.57;;;15.70;99.90;;;;;;5052467;28;20051;-76
2022/07/31 05:04:10;;;;;;;5.55;4.53;;;15.80;99.90;;;;;;5051891;28;20033;-76
2022/07/31 05:06:39;;;;;;;8.68;4.30;;;15.80;99.90;;;;;;5052059;28;20033;-75
2022/07/31 05:09:06;;;;;;;5.45;4.32;;;15.90;99.90;;;;;;5052924;28;20041;-76
2022/07/31 05:11:33;;;;;;;4.72;4.20;;;15.90;99.90;;;;;;5053881;28;20029;-76
2022/07/31 05:14:01;;;;;;;5.35;4.25;;;16.00;99.90;;;;;;5055663;28;20397;-75
2022/07/31 05:16:28;;;;;;;6.30;4.60;;;16.00;99.90;;;;;;5066006;28;20039;-76
2022/07/31 05:18:54;;;;;;;8.23;4.18;;;16.00;99.90;;;;;;5064922;28;20016;-76
2022/07/31 05:21:20;;;;;;;5.70;4.30;;;16.10;99.90;;;;;;5064222;28;20039;-76
2022/07/31 05:23:47;;;;;;;5.35;3.90;;;16.10;99.90;;;;;;5065864;28;20017;-76
2022/07/31 05:26:13;;;;;;;5.53;4.10;;;16.20;99.90;;;;;;5065070;28;20436;-76
2022/07/31 05:28:39;;;;;;;7.80;4.05;;;16.30;99.90;;;;;;5068081;28;20028;-76
2022/07/31 05:31:06;;;;;;;4.72;3.83;;;16.40;99.90;;;;;;5068271;28;20031;-76
2022/07/31 05:33:32;;;;;;;4.30;3.60;;;16.50;99.90;;;;;;5067288;28;20775;-77
2022/07/31 05:35:59;;;;;;;6.60;3.88;;;16.60;99.90;;;;;;5064386;28;20017;-76
2022/07/31 05:38:25;;;;;;;6.63;3.65;;;16.70;99.90;;;;;;5068618;28;20020;-76
2022/07/31 05:40:51;;;;;;;6.50;3.80;;;16.80;99.90;;;;;;5051578;28;20025;-76
2022/07/31 05:43:16;;;;;;;5.25;3.53;;;16.90;99.90;;;;;;5051326;28;20521;-76
2022/07/31 05:45:42;;;;;;;7.80;4.38;;;17.00;99.90;;;;;;5051090;28;20028;-73
2022/07/31 05:48:08;;;;;;;5.57;3.50;;;17.10;99.90;;;;;;5049803;28;20389;-72
2022/07/31 05:50:33;;;;;;;5.95;3.72;;;17.20;99.90;;;;;;5051232;28;20078;-72
2022/07/31 05:52:59;;;;;;;5.05;3.60;;;17.30;99.90;;;;;;5050972;28;20075;-73
2022/07/31 05:55:25;;;;;;;8.20;3.38;;;17.40;99.90;;;;;;5050840;28;20132;-72
2022/07/31 05:57:51;;;;;;;4.45;3.50;;;17.50;99.90;;;;;;5051092;28;20025;-72
2022/07/31 06:00:17;;;;;;;6.47;3.15;;;17.70;99.90;;;;;;5050780;28;20533;-72
2022/07/31 06:02:43;;;;;;;6.18;3.25;;;17.80;99.90;;;;;;5050908;28;20066;-73
2022/07/31 06:05:09;;;;;;;7.22;3.72;;;17.90;99.90;;;;;;5050935;28;20032;-72
2022/07/31 06:07:34;;;;;;;5.10;3.50;;;18.00;99.90;;;;;;5050708;28;20040;-73
2022/07/31 06:10:01;;;;;;;4.20;3.20;;;18.10;99.90;;;;;;5050831;28;20040;-72
2022/07/31 06:12:26;;;;;;;5.25;3.30;;;18.10;99.90;;;;;;5048675;28;20017;-73
2022/07/31 06:14:52;;;;;;;5.57;3.38;;;18.10;99.90;;;;;;5042471;28;20043;-72
2022/07/31 06:17:18;;;;;;;4.35;3.42;;;18.20;99.90;;;;;;5050773;28;20033;-73
2022/07/31 06:19:43;;;;;;;4.70;3.47;;;18.30;99.90;;;;;;5050706;28;20042;-72
2022/07/31 06:22:09;;;;;;;3.88;3.15;;;18.30;99.90;;;;;;5050676;28;20035;-73
2022/07/31 06:24:36;;;;;;;5.18;3.30;;;18.40;99.90;;;;;;5050062;28;20017;-73
2022/07/31 06:27:02;;;;;;;6.50;3.53;;;18.40;99.90;;;;;;5050630;28;20074;-73
2022/07/31 06:29:28;;;;;;;3.63;3.00;;;18.40;99.90;;;;;;5049002;28;20021;-73
2022/07/31 06:31:54;;;;;;;7.32;3.35;;;18.60;99.90;;;;;;5050522;28;20017;-72
2022/07/31 06:34:20;;;;;;;4.68;3.03;;;18.60;99.90;;;;;;5050338;28;20074;-73
2022/07/31 06:36:45;;;;;;;5.22;3.42;;;18.70;99.90;;;;;;5050353;28;20025;-73
2022/07/31 06:39:11;;;;;;;10.90;3.60;;;18.70;99.90;;;;;;5050280;28;20028;-73
2022/07/31 06:41:43;;;;;;;4.18;3.17;;;18.70;99.90;;;;;;5050287;28;20359;-73
2022/07/31 06:44:09;;;;;;;7.45;3.83;;;18.70;99.90;;;;;;5050289;28;20021;-72
2022/07/31 06:46:35;;;;;;;4.05;3.50;;;18.70;99.90;;;;;;5049984;28;20028;-73
2022/07/31 06:49:00;;;;;;;5.85;3.20;;;18.80;99.90;;;;;;5050148;28;20028;-73
2022/07/31 06:51:26;;;;;;;5.80;3.30;;;18.80;99.90;;;;;;5050278;28;20036;-73
2022/07/31 06:53:52;;;;;;;4.45;3.45;;;18.80;99.90;;;;;;5048828;28;20064;-73
2022/07/31 06:56:17;;;;;;;3.42;2.97;;;18.90;99.90;;;;;;5050075;28;20504;-73
2022/07/31 06:58:43;;;;;;;4.72;3.10;;;18.90;99.90;;;;;;5049963;28;20477;-73
2022/07/31 07:01:08;;;;;;;6.72;3.10;;;18.90;99.90;;;;;;5050223;28;20029;-73
2022/07/31 07:03:34;;;;;;;5.10;3.35;;;19.00;99.90;;;;;;5050038;28;20036;-73
2022/07/31 07:05:59;;;;;;;6.60;3.22;;;19.00;99.90;;;;;;5050120;28;20048;-73
2022/07/31 07:08:25;;;;;;;5.50;3.97;;;19.00;99.90;;;;;;5048751;28;20075;-73
2022/07/31 07:10:51;;;;;;;3.92;3.38;;;19.10;99.90;;;;;;5050673;28;20033;-73
2022/07/31 07:13:16;;;;;;;4.78;3.15;;;19.10;99.90;;;;;;5043848;28;20124;-73
2022/07/31 07:15:42;;;;;;;3.80;2.60;;;19.10;99.90;;;;;;5049846;28;20531;-73
2022/07/31 07:18:07;;;;;;;8.13;3.20;;;19.10;99.90;;;;;;5050125;28;20487;-72
2022/07/31 07:20:33;;;;;;;5.70;3.08;;;19.20;99.90;;;;;;5050066;28;20433;-73
2022/07/31 07:22:58;;;;;;;6.38;2.97;;;19.30;99.90;;;;;;5049911;28;20408;-72
2022/07/31 07:25:24;;;;;;;4.07;2.80;;;19.30;99.90;;;;;;5050065;28;20032;-73
2022/07/31 07:27:49;;;;;;;6.72;3.08;;;19.30;99.90;;;;;;5049817;28;20077;-73
2022/07/31 07:30:15;;;;;;;6.75;2.83;;;19.40;99.90;;;;;;5049977;28;20110;-73
2022/07/31 07:32:40;;;;;;;7.15;2.47;;;19.40;99.90;;;;;;5049642;28;20080;-73
2022/07/31 07:35:08;;;;;;;4.40;2.95;;;19.40;99.90;;;;;;5049788;28;20421;-72
2022/07/31 07:37:33;;;;;;;4.43;2.70;;;19.40;99.90;;;;;;5051506;28;20033;-73
2022/07/31 07:39:59;;;;;;;5.05;3.00;;;19.50;99.90;;;;;;5053417;28;20377;-73
2022/07/31 07:42:24;;;;;;;3.50;2.60;;;19.60;99.90;;;;;;5053690;28;20025;-72
2022/07/31 07:44:50;;;;;;;4.93;2.72;;;19.50;99.90;;;;;;5053549;28;20021;-73
2022/07/31 07:47:15;;;;;;;7.80;2.97;;;19.70;99.90;;;;;;5053757;28;20033;-70
2022/07/31 07:49:41;;;;;;;5.22;2.60;;;19.80;99.90;;;;;;5054083;28;20048;-70
2022/07/31 07:52:06;;;;;;;5.18;2.58;;;20.10;99.90;;;;;;5053766;28;20037;-72
2022/07/31 07:54:32;;;;;;;3.83;2.70;;;20.20;99.90;;;;;;5053213;28;20053;-79
2022/07/31 07:56:58;;;;;;;3.60;2.60;;;20.30;99.90;;;;;;5052224;28;20462;-75
2022/07/31 07:59:23;;;;;;;6.75;3.30;;;20.40;99.90;;;;;;5053408;28;20052;-81
2022/07/31 08:01:49;;;;;;;5.40;2.78;;;20.50;99.90;;;;;;5053319;28;20092;-72
2022/07/31 08:04:15;;;;;;;4.28;2.58;;;20.60;99.90;;;;;;5053244;28;20021;-73
2022/07/31 08:06:40;;;;;;;3.42;2.40;;;20.80;99.90;;;;;;5053138;28;20029;-76
2022/07/31 08:09:07;;;;;;;3.63;2.60;;;20.90;99.90;;;;;;5053217;28;20388;-72
2022/07/31 08:11:32;;;;;;;3.25;2.60;;;20.90;99.90;;;;;;5068632;28;20120;-71
2022/07/31 08:13:58;;;;;;;3.63;2.28;;;21.00;99.90;;;;;;5061596;28;20051;-71
2022/07/31 08:16:24;;;;;;;5.63;2.60;;;21.00;99.90;;;;;;5064877;28;20404;-71
2022/07/31 08:18:51;;;;;;;4.10;2.50;;;21.10;99.90;;;;;;5052311;28;20107;-71
2022/07/31 08:21:17;;;;;;;6.75;3.08;;;21.20;99.90;;;;;;5052271;28;20478;-71
2022/07/31 08:23:43;;;;;;;4.78;2.47;;;21.30;99.90;;;;;;5052158;28;20053;-70
2022/07/31 08:26:08;;;;;;;8.48;2.88;;;21.30;99.90;;;;;;5052044;28;20025;-71
2022/07/31 08:28:34;;;;;;;4.97;2.60;;;21.30;99.90;;;;;;5052169;28;20385;-71
2022/07/31 08:31:00;;;;;;;5.25;2.50;;;21.20;99.90;;;;;;5052031;28;20033;-71
2022/07/31 08:33:26;;;;;;;4.25;2.47;;;21.20;99.90;;;;;;5052994;28;20021;-71
2022/07/31 08:35:52;;;;;;;4.97;2.53;;;21.10;99.90;;;;;;5052641;28;20075;-71
2022/07/31 08:38:18;;;;;;;5.72;2.85;;;21.10;99.90;;;;;;5052420;28;20028;-71
2022/07/31 08:40:45;;;;;;;4.05;2.53;;;21.10;99.90;;;;;;5052479;28;20501;-74
2022/07/31 08:43:12;;;;;;;4.45;2.92;;;21.10;99.90;;;;;;5052131;28;20028;-71
2022/07/31 08:45:39;;;;;;;5.18;2.20;;;21.20;99.90;;;;;;5052619;28;20386;-71
2022/07/31 08:48:07;;;;;;;6.60;2.38;;;21.30;99.90;;;;;;5052570;28;20086;-71
2022/07/31 08:50:37;;;;;;;3.92;2.47;;;21.40;99.90;;;;;;5069833;28;20020;-71
2022/07/31 08:53:04;;;;;;;4.20;2.60;;;21.50;99.90;;;;;;5065457;28;20928;-74
2022/07/31 08:55:31;;;;;;;4.57;2.28;;;21.50;99.90;;;;;;5065439;28;20812;-72
2022/07/31 08:57:57;;;;;;;5.15;2.47;;;21.70;99.90;;;;;;5068731;28;20367;-71
2022/07/31 09:00:23;;;;;;;3.45;2.30;;;21.70;99.90;;;;;;5071248;28;20012;-71
2022/07/31 09:02:51;;;;;;;4.60;2.65;;;21.90;99.90;;;;;;5061213;28;20377;-70
2022/07/31 09:05:19;;;;;;;4.85;2.28;;;22.10;99.90;;;;;;5065681;28;20021;-70
2022/07/31 09:07:44;;;;;;;4.45;2.47;;;22.10;99.90;;;;;;5052286;28;20025;-71
2022/07/31 09:10:27;;;;;;;3.42;2.47;;;22.20;99.90;;;;;;5058300;28;20028;-71
2022/07/31 09:12:55;;;;;;;3.10;2.10;;;22.30;99.90;;;;;;5062495;28;20036;-71
2022/07/31 09:15:23;;;;;;;4.40;2.10;;;22.40;99.90;;;;;;5055979;28;20040;-71
2022/07/31 09:17:49;;;;;;;5.22;2.90;;;22.40;99.90;;;;;;5051896;28;20482;-71
2022/07/31 09:20:22;;;;;;;4.10;2.42;;;22.60;99.90;;;;;;5048505;28;20078;-71
2022/07/31 09:23:02;;;;;;;3.17;2.28;;;22.70;99.90;;;;;;5050436;28;20109;-71
2022/07/31 09:25:28;;;;;;;5.30;2.28;;;22.80;99.90;;;;;;5049646;28;20037;-71
2022/07/31 09:28:00;;;;;;;4.18;2.10;;;23.00;99.90;;;;;;5049501;28;20048;-71
2022/07/31 09:30:26;;;;;;;4.35;2.20;;;23.20;99.90;;;;;;5048496;28;20156;-71
2022/07/31 09:32:51;;;;;;;4.53;2.33;;;23.30;99.90;;;;;;5048303;28;20441;-71
2022/07/31 09:35:17;;;;;;;7.43;2.40;;;23.50;99.90;;;;;;5051677;28;20048;-71
2022/07/31 09:37:46;;;;;;;3.75;2.30;;;23.70;99.90;;;;;;5051939;28;20032;-71
2022/07/31 09:40:12;;;;;;;4.45;2.38;;;23.90;99.90;;;;;;5051467;28;20025;-71
2022/07/31 09:42:42;;;;;;;4.57;2.28;;;24.10;99.90;;;;;;5051400;28;20108;-71
2022/07/31 09:45:22;;;;;;;3.55;2.10;;;24.40;99.90;;;;;;5051277;28;20078;-71
2022/07/31 09:48:01;;;;;;;7.70;2.00;;;24.70;99.90;;;;;;5051175;28;20025;-71
2022/07/31 09:50:27;;;;;;;4.88;2.00;;;24.90;99.90;;;;;;5059621;28;20032;-71
2022/07/31 09:53:00;;;;;;;3.90;1.60;;;25.30;99.90;;;;;;5060127;28;20036;-71
2022/07/31 09:55:26;;;;;;;3.20;1.70;;;25.50;99.90;;;;;;5060385;28;20041;-71
2022/07/31 09:57:54;;;;;;;3.88;1.70;;;25.80;99.90;;;;;;5059206;28;20414;-71
2022/07/31 10:00:22;;;;;;;2.83;1.80;;;26.10;99.90;;;;;;5057021;28;20031;-71
2022/07/31 10:02:49;;;;;;;3.53;1.80;;;26.10;99.90;;;;;;5059304;28;20021;-71
2022/07/31 10:05:16;;;;;;;4.07;1.80;;;26.10;99.90;;;;;;5051072;28;20028;-71
2022/07/31 10:07:42;;;;;;;4.38;1.90;;;26.20;99.90;;;;;;5050867;28;20025;-71
2022/07/31 10:10:09;;;;;;;3.10;1.55;;;26.30;99.90;;;;;;5049850;28;20054;-71
2022/07/31 10:12:40;;;;;;;4.68;1.83;;;26.50;99.90;;;;;;5045203;28;20144;-71
2022/07/31 10:15:10;;;;;;;4.28;1.55;;;26.70;99.90;;;;;;5064716;28;20033;-73
2022/07/31 10:17:39;;;;;;;5.47;1.70;;;27.10;99.90;;;;;;5065266;28;20025;-71
2022/07/31 10:20:07;;;;;;;3.78;1.48;;;27.30;99.90;;;;;;5068355;28;20077;-71
2022/07/31 10:22:39;;;;;;;5.70;1.40;;;27.40;99.90;;;;;;5065791;28;20488;-72
2022/07/31 10:25:07;;;;;;;5.55;2.00;;;27.60;99.90;;;;;;5065717;28;20032;-71
2022/07/31 10:27:34;;;;;;;5.50;1.52;;;27.80;99.90;;;;;;5067243;28;20031;-71
2022/07/31 10:30:01;;;;;;;5.32;1.98;;;28.00;99.90;;;;;;5069243;28;20024;-72
2022/07/31 10:32:27;;;;;;;4.72;1.80;;;28.40;99.00;;;;;;5069493;28;20032;-72
2022/07/31 10:34:53;;;;;;;4.15;1.70;;;28.40;97.30;;;;;;5066674;28;20063;-71
2022/07/31 10:37:29;;;;;;;3.80;1.88;;;28.40;99.40;;;;;;5067722;28;20009;-77
2022/07/31 10:40:09;;;;;;;3.08;1.60;;;28.80;98.50;;;;;;5051322;28;20024;-75
2022/07/31 10:43:08;;;;;;;3.30;1.75;;;28.90;99.60;;;;;;5050598;28;20122;-71
2022/07/31 10:45:48;;;;;;;4.82;1.60;;;28.90;97.60;;;;;;5050474;28;20029;-77
2022/07/31 10:48:14;;;;;;;7.25;2.17;;;29.10;98.10;;;;;;5050368;28;20021;-76
2022/07/31 10:50:40;;;;;;;3.33;1.80;;;29.20;94.70;;;;;;5050614;28;20029;-77
2022/07/31 10:53:11;;;;;;;2.50;1.50;;;29.00;95.40;;;;;;5050600;28;20029;-77
2022/07/31 10:55:37;;;;;;;3.72;1.80;;;28.70;95.50;;;;;;5050193;28;20037;-77
2022/07/31 10:58:10;;;;;;;6.50;1.60;;;28.60;94.50;;;;;;5050422;28;20036;-77
2022/07/31 11:00:36;;;;;;;3.65;1.60;;;28.50;98.10;;;;;;5050605;28;20458;-76
2022/07/31 11:03:19;;;;;;;3.05;1.70;;;28.70;99.10;;;;;;5050196;28;20412;-76
2022/07/31 11:05:58;;;;;;;6.20;1.75;;;28.90;97.20;;;;;;5050523;28;20025;-76
2022/07/31 11:08:24;;;;;;;5.15;1.63;;;28.90;98.70;;;;;;5045664;28;20071;-76
2022/07/31 11:10:59;;;;;;;4.45;1.60;;;29.00;96.00;;;;;;5050847;28;20056;-77
2022/07/31 11:13:25;;;;;;;4.75;1.80;;;29.00;94.90;;;;;;5039089;28;20033;-77
2022/07/31 11:16:05;;;;;;;4.50;1.65;;;28.60;95.70;;;;;;5062832;28;20044;-76
2022/07/31 11:18:30;;;;;;;3.22;1.58;;;28.50;97.80;;;;;;5071129;28;20645;-76
2022/07/31 11:21:00;;;;;;;7.55;1.80;;;28.40;97.40;;;;;;5071061;28;20031;-76
2022/07/31 11:23:30;;;;;;;3.75;1.80;;;28.20;95.80;;;;;;5073424;28;20100;-76
2022/07/31 11:26:01;;;;;;;3.58;1.67;;;28.10;95.60;;;;;;5068924;28;20024;-76
2022/07/31 11:28:27;;;;;;;4.85;1.52;;;28.00;94.40;;;;;;5061192;28;20025;-76
2022/07/31 11:30:57;;;;;;;3.45;1.80;;;28.00;94.60;;;;;;5065648;28;20024;-77
2022/07/31 11:33:37;;;;;;;5.15;1.60;;;27.80;95.70;;;;;;5071500;28;20028;-76
2022/07/31 11:36:18;;;;;;;6.05;1.88;;;27.80;95.50;;;;;;5069739;28;20032;-74
2022/07/31 11:38:46;;;;;;;4.50;1.70;;;27.80;97.10;;;;;;5069226;28;20012;-79
2022/07/31 11:41:13;;;;;;;5.22;1.60;;;27.90;95.20;;;;;;5066426;28;20041;-76
2022/07/31 11:43:46;;;;;;;3.08;1.50;;;27.80;93.10;;;;;;5067007;28;20048;-76
2022/07/31 11:46:33;;;;;;;1.90;1.40;;;27.70;95.20;;;;;;5070114;28;20021;-76
2022/07/31 11:48:59;;;;;;;3.40;1.80;;;27.80;93.30;;;;;;5066468;28;20032;-76
2022/07/31 11:51:26;;;;;;;2.55;1.60;;;27.70;93.60;;;;;;5068106;28;20066;-76
2022/07/31 11:53:54;;;;;;;2.30;1.63;;;27.60;95.70;;;;;;5069142;28;20029;-77
2022/07/31 11:56:20;;;;;;;4.38;1.70;;;27.50;95.40;;;;;;5070505;28;20052;-76
2022/07/31 11:58:48;;;;;;;2.88;1.58;;;27.60;96.00;;;;;;5067379;28;20016;-71
2022/07/31 12:01:14;;;;;;;2.83;1.60;;;28.20;95.70;;;;;;5071268;28;20021;-78
2022/07/31 12:03:40;;;;;;;3.78;1.50;;;28.70;96.60;;;;;;5070091;28;20021;-76
2022/07/31 12:06:07;;;;;;;3.60;1.65;;;29.10;94.20;;;;;;5070498;28;20028;-78
2022/07/31 12:08:34;;;;;;;4.25;1.55;;;29.10;92.40;;;;;;5068137;28;20020;-78
2022/07/31 12:11:04;;;;;;;4.40;1.55;;;29.00;92.60;;;;;;5064123;28;20501;-78
2022/07/31 12:13:31;;;;;;;4.72;1.70;;;28.70;92.70;;;;;;5043407;28;20115;-78
2022/07/31 12:16:07;;;;;;;3.53;1.73;;;28.60;93.30;;;;;;5053097;28;20087;-78
2022/07/31 12:19:03;;;;;;;5.57;1.60;;;28.50;93.30;;;;;;5051880;28;20017;-78
2022/07/31 12:21:32;;;;;;;4.53;1.50;;;28.40;94.30;;;;;;5048433;28;20398;-79
2022/07/31 12:23:58;;;;;;;2.63;1.70;;;28.30;93.50;;;;;;5052293;28;20017;-78
2022/07/31 12:26:32;;;;;;;4.97;1.55;;;28.00;93.50;;;;;;5052647;28;20024;-78
2022/07/31 12:29:06;;;;;;;2.85;1.85;;;27.80;92.70;;;;;;5053045;28;20130;-78
2022/07/31 12:31:49;;;;;;;3.33;1.98;;;27.90;95.40;;;;;;5052149;28;20033;-79
2022/07/31 12:34:29;;;;;;;3.85;1.40;;;28.40;96.50;;;;;;5051667;28;20633;-79
2022/07/31 12:37:06;;;;;;;3.80;1.60;;;29.00;93.50;;;;;;5049153;28;20566;-79
2022/07/31 12:39:54;;;;;;;3.35;1.73;;;29.70;92.50;;;;;;5051535;28;20041;-79
2022/07/31 12:42:34;;;;;;;3.75;1.60;;;30.00;92.10;;;;;;5051402;28;20043;-79
2022/07/31 12:45:01;;;;;;;6.13;1.55;;;29.90;91.40;;;;;;5051795;28;20056;-79
2022/07/31 12:47:31;;;;;;;4.18;1.90;;;29.70;91.20;;;;;;5050405;28;20513;-79
2022/07/31 12:49:58;;;;;;;3.35;1.40;;;29.50;93.00;;;;;;5052234;28;20025;-79